sensor_id;sensor_type;location;lat;lon;timestamp;P1;P2;P0
47081;PMS5003;33066;49.296;14.470;2023-04-19T00:01:27;38;35;
47081;PMS5003;33066;49.296;14.470;2023-04-19T00:03:53;32;23;
47081;PMS5003;33066;49.296;14.470;2023-04-19T00:06:18;23;22;
47081;PMS5003;33066;49.296;14.470;2023-04-19T00:08:43;24;23;
47081;PMS5003;33066;49.296;14.470;2023-04-19T00:11:09;33;25;
47081;PMS5003;33066;49.296;14.470;2023-04-19T00:13:34;28;25;
47081;PMS5003;33066;49.296;14.470;2023-04-19T00:15:59;23;22;
47081;PMS5003;33066;49.296;14.470;2023-04-19T00:18:25;24;23;
47081;PMS5003;33066;49.296;14.470;2023-04-19T00:20:51;31;28;
47081;PMS5003;33066;49.296;14.470;2023-04-19T00:23:16;32;24;
47081;PMS5003;33066;49.296;14.470;2023-04-19T00:25:41;52;46;
47081;PMS5003;33066;49.296;14.470;2023-04-19T00:28:07;34;28;
47081;PMS5003;33066;49.296;14.470;2023-04-19T00:30:33;33;30;
47081;PMS5003;33066;49.296;14.470;2023-04-19T00:32:58;25;24;
47081;PMS5003;33066;49.296;14.470;2023-04-19T00:35:23;28;24;
47081;PMS5003;33066;49.296;14.470;2023-04-19T00:37:49;18;15;
47081;PMS5003;33066;49.296;14.470;2023-04-19T00:40:14;31;23;
47081;PMS5003;33066;49.296;14.470;2023-04-19T00:42:40;26;23;
47081;PMS5003;33066;49.296;14.470;2023-04-19T00:45:06;30;22;
47081;PMS5003;33066;49.296;14.470;2023-04-19T00:47:31;24;17;
47081;PMS5003;33066;49.296;14.470;2023-04-19T00:49:56;29;24;
47081;PMS5003;33066;49.296;14.470;2023-04-19T00:52:22;23;20;
47081;PMS5003;33066;49.296;14.470;2023-04-19T00:54:46;29;27;
47081;PMS5003;33066;49.296;14.470;2023-04-19T00:57:12;19;16;
47081;PMS5003;33066;49.296;14.470;2023-04-19T00:59:38;23;20;
47081;PMS5003;33066;49.296;14.470;2023-04-19T01:02:03;27;26;
47081;PMS5003;33066;49.296;14.470;2023-04-19T01:04:28;21;19;
47081;PMS5003;33066;49.296;14.470;2023-04-19T01:06:55;24;23;
47081;PMS5003;33066;49.296;14.470;2023-04-19T01:09:19;29;27;
47081;PMS5003;33066;49.296;14.470;2023-04-19T01:11:44;18;18;
47081;PMS5003;33066;49.296;14.470;2023-04-19T01:14:11;22;20;
47081;PMS5003;33066;49.296;14.470;2023-04-19T01:16:35;30;22;
47081;PMS5003;33066;49.296;14.470;2023-04-19T01:19:00;27;22;
47081;PMS5003;33066;49.296;14.470;2023-04-19T01:21:25;29;25;
47081;PMS5003;33066;49.296;14.470;2023-04-19T01:23:51;27;24;
47081;PMS5003;33066;49.296;14.470;2023-04-19T01:26:17;33;28;
47081;PMS5003;33066;49.296;14.470;2023-04-19T01:28:42;29;25;
47081;PMS5003;33066;49.296;14.470;2023-04-19T01:31:07;21;18;
47081;PMS5003;33066;49.296;14.470;2023-04-19T01:33:33;23;15;
47081;PMS5003;33066;49.296;14.470;2023-04-19T01:35:59;22;21;
47081;PMS5003;33066;49.296;14.470;2023-04-19T01:38:23;28;21;
47081;PMS5003;33066;49.296;14.470;2023-04-19T01:40:48;25;18;
47081;PMS5003;33066;49.296;14.470;2023-04-19T01:43:15;29;23;
47081;PMS5003;33066;49.296;14.470;2023-04-19T01:45:39;30;26;
47081;PMS5003;33066;49.296;14.470;2023-04-19T01:48:05;30;24;
47081;PMS5003;33066;49.296;14.470;2023-04-19T01:50:30;23;20;
47081;PMS5003;33066;49.296;14.470;2023-04-19T01:52:56;24;23;
47081;PMS5003;33066;49.296;14.470;2023-04-19T01:55:21;29;25;
47081;PMS5003;33066;49.296;14.470;2023-04-19T01:57:47;25;21;
47081;PMS5003;33066;49.296;14.470;2023-04-19T02:00:12;28;24;
47081;PMS5003;33066;49.296;14.470;2023-04-19T02:02:37;27;23;
47081;PMS5003;33066;49.296;14.470;2023-04-19T02:05:04;32;28;
47081;PMS5003;33066;49.296;14.470;2023-04-19T02:07:29;21;18;
47081;PMS5003;33066;49.296;14.470;2023-04-19T02:09:54;21;19;
47081;PMS5003;33066;49.296;14.470;2023-04-19T02:12:19;19;16;
47081;PMS5003;33066;49.296;14.470;2023-04-19T02:14:45;49;35;
47081;PMS5003;33066;49.296;14.470;2023-04-19T02:17:10;102;78;
47081;PMS5003;33066;49.296;14.470;2023-04-19T02:19:35;56;51;
47081;PMS5003;33066;49.296;14.470;2023-04-19T02:22:02;52;43;
47081;PMS5003;33066;49.296;14.470;2023-04-19T02:24:26;47;40;
47081;PMS5003;33066;49.296;14.470;2023-04-19T02:26:51;56;40;
47081;PMS5003;33066;49.296;14.470;2023-04-19T02:29:17;33;28;
47081;PMS5003;33066;49.296;14.470;2023-04-19T02:31:42;44;41;
47081;PMS5003;33066;49.296;14.470;2023-04-19T02:34:07;40;30;
47081;PMS5003;33066;49.296;14.470;2023-04-19T02:36:33;46;42;
47081;PMS5003;33066;49.296;14.470;2023-04-19T02:38:59;55;44;
47081;PMS5003;33066;49.296;14.470;2023-04-19T02:41:24;26;22;
47081;PMS5003;33066;49.296;14.470;2023-04-19T02:43:49;33;24;
47081;PMS5003;33066;49.296;14.470;2023-04-19T02:46:14;36;34;
47081;PMS5003;33066;49.296;14.470;2023-04-19T02:48:39;47;40;
47081;PMS5003;33066;49.296;14.470;2023-04-19T02:51:05;28;27;
47081;PMS5003;33066;49.296;14.470;2023-04-19T02:53:30;25;21;
47081;PMS5003;33066;49.296;14.470;2023-04-19T02:55:55;36;30;
47081;PMS5003;33066;49.296;14.470;2023-04-19T02:58:21;33;26;
47081;PMS5003;33066;49.296;14.470;2023-04-19T03:00:46;34;30;
47081;PMS5003;33066;49.296;14.470;2023-04-19T03:03:12;35;26;
47081;PMS5003;33066;49.296;14.470;2023-04-19T03:05:38;32;29;
47081;PMS5003;33066;49.296;14.470;2023-04-19T03:08:03;29;26;
47081;PMS5003;33066;49.296;14.470;2023-04-19T03:13:01;55;50;
47081;PMS5003;33066;49.296;14.470;2023-04-19T03:15:26;56;46;
47081;PMS5003;33066;49.296;14.470;2023-04-19T03:17:53;38;34;
47081;PMS5003;33066;49.296;14.470;2023-04-19T03:20:17;52;40;
47081;PMS5003;33066;49.296;14.470;2023-04-19T03:22:44;43;37;
47081;PMS5003;33066;49.296;14.470;2023-04-19T03:25:08;47;43;
47081;PMS5003;33066;49.296;14.470;2023-04-19T03:27:34;38;30;
47081;PMS5003;33066;49.296;14.470;2023-04-19T03:29:59;47;45;
47081;PMS5003;33066;49.296;14.470;2023-04-19T03:32:25;57;56;
47081;PMS5003;33066;49.296;14.470;2023-04-19T03:34:50;48;41;
47081;PMS5003;33066;49.296;14.470;2023-04-19T03:37:16;56;49;
47081;PMS5003;33066;49.296;14.470;2023-04-19T03:39:41;68;68;
47081;PMS5003;33066;49.296;14.470;2023-04-19T03:42:06;80;67;
47081;PMS5003;33066;49.296;14.470;2023-04-19T03:44:32;48;45;
47081;PMS5003;33066;49.296;14.470;2023-04-19T03:46:57;46;40;
47081;PMS5003;33066;49.296;14.470;2023-04-19T03:49:23;52;45;
47081;PMS5003;33066;49.296;14.470;2023-04-19T03:51:49;57;53;
47081;PMS5003;33066;49.296;14.470;2023-04-19T03:54:13;54;43;
47081;PMS5003;33066;49.296;14.470;2023-04-19T03:56:39;74;61;
47081;PMS5003;33066;49.296;14.470;2023-04-19T03:59:05;60;52;
47081;PMS5003;33066;49.296;14.470;2023-04-19T04:01:30;59;50;
47081;PMS5003;33066;49.296;14.470;2023-04-19T04:03:56;45;37;
47081;PMS5003;33066;49.296;14.470;2023-04-19T04:06:21;78;65;
47081;PMS5003;33066;49.296;14.470;2023-04-19T04:08:46;73;67;
47081;PMS5003;33066;49.296;14.470;2023-04-19T04:11:12;54;47;
47081;PMS5003;33066;49.296;14.470;2023-04-19T04:13:37;63;55;
47081;PMS5003;33066;49.296;14.470;2023-04-19T04:16:03;56;51;
47081;PMS5003;33066;49.296;14.470;2023-04-19T04:18:29;70;60;
47081;PMS5003;33066;49.296;14.470;2023-04-19T04:20:54;49;43;
47081;PMS5003;33066;49.296;14.470;2023-04-19T04:23:20;67;59;
47081;PMS5003;33066;49.296;14.470;2023-04-19T04:25:46;51;46;
47081;PMS5003;33066;49.296;14.470;2023-04-19T04:28:11;61;50;
47081;PMS5003;33066;49.296;14.470;2023-04-19T04:30:36;51;46;
47081;PMS5003;33066;49.296;14.470;2023-04-19T04:33:02;54;44;
47081;PMS5003;33066;49.296;14.470;2023-04-19T04:35:27;62;50;
47081;PMS5003;33066;49.296;14.470;2023-04-19T04:37:53;75;61;
47081;PMS5003;33066;49.296;14.470;2023-04-19T04:40:18;62;51;
47081;PMS5003;33066;49.296;14.470;2023-04-19T04:42:43;71;56;
47081;PMS5003;33066;49.296;14.470;2023-04-19T04:45:09;59;48;
47081;PMS5003;33066;49.296;14.470;2023-04-19T04:47:34;73;62;
47081;PMS5003;33066;49.296;14.470;2023-04-19T04:50:00;49;47;
47081;PMS5003;33066;49.296;14.470;2023-04-19T04:52:25;46;42;
47081;PMS5003;33066;49.296;14.470;2023-04-19T04:54:52;57;48;
47081;PMS5003;33066;49.296;14.470;2023-04-19T04:57:16;51;44;
47081;PMS5003;33066;49.296;14.470;2023-04-19T04:59:41;59;43;
47081;PMS5003;33066;49.296;14.470;2023-04-19T05:02:07;55;46;
47081;PMS5003;33066;49.296;14.470;2023-04-19T05:04:33;62;50;
47081;PMS5003;33066;49.296;14.470;2023-04-19T05:06:58;59;44;
47081;PMS5003;33066;49.296;14.470;2023-04-19T05:09:23;63;50;
47081;PMS5003;33066;49.296;14.470;2023-04-19T05:11:48;50;41;
47081;PMS5003;33066;49.296;14.470;2023-04-19T05:14:13;49;41;
47081;PMS5003;33066;49.296;14.470;2023-04-19T05:16:39;44;40;
47081;PMS5003;33066;49.296;14.470;2023-04-19T05:19:05;39;37;
47081;PMS5003;33066;49.296;14.470;2023-04-19T05:21:31;46;40;
47081;PMS5003;33066;49.296;14.470;2023-04-19T05:23:55;45;37;
47081;PMS5003;33066;49.296;14.470;2023-04-19T05:26:21;52;39;
47081;PMS5003;33066;49.296;14.470;2023-04-19T05:28:47;39;35;
47081;PMS5003;33066;49.296;14.470;2023-04-19T05:31:12;43;31;
47081;PMS5003;33066;49.296;14.470;2023-04-19T05:33:37;43;39;
47081;PMS5003;33066;49.296;14.470;2023-04-19T05:36:03;49;44;
47081;PMS5003;33066;49.296;14.470;2023-04-19T05:38:28;48;40;
47081;PMS5003;33066;49.296;14.470;2023-04-19T05:40:54;38;34;
47081;PMS5003;33066;49.296;14.470;2023-04-19T05:43:19;43;38;
47081;PMS5003;33066;49.296;14.470;2023-04-19T05:45:44;50;40;
47081;PMS5003;33066;49.296;14.470;2023-04-19T05:48:10;39;35;
47081;PMS5003;33066;49.296;14.470;2023-04-19T05:50:36;50;47;
47081;PMS5003;33066;49.296;14.470;2023-04-19T05:53:01;35;29;
47081;PMS5003;33066;49.296;14.470;2023-04-19T05:55:26;40;36;
47081;PMS5003;33066;49.296;14.470;2023-04-19T05:57:51;45;35;
47081;PMS5003;33066;49.296;14.470;2023-04-19T06:00:17;47;36;
47081;PMS5003;33066;49.296;14.470;2023-04-19T06:02:42;47;41;
47081;PMS5003;33066;49.296;14.470;2023-04-19T06:05:08;47;41;
47081;PMS5003;33066;49.296;14.470;2023-04-19T06:07:34;42;39;
47081;PMS5003;33066;49.296;14.470;2023-04-19T06:09:59;53;44;
47081;PMS5003;33066;49.296;14.470;2023-04-19T06:12:24;53;44;
47081;PMS5003;33066;49.296;14.470;2023-04-19T06:14:50;93;62;
47081;PMS5003;33066;49.296;14.470;2023-04-19T06:17:15;43;40;
47081;PMS5003;33066;49.296;14.470;2023-04-19T06:19:41;33;29;
47081;PMS5003;33066;49.296;14.470;2023-04-19T06:22:07;32;26;
47081;PMS5003;33066;49.296;14.470;2023-04-19T06:24:32;32;27;
47081;PMS5003;33066;49.296;14.470;2023-04-19T06:26:57;36;23;
47081;PMS5003;33066;49.296;14.470;2023-04-19T06:29:23;30;23;
47081;PMS5003;33066;49.296;14.470;2023-04-19T06:31:48;21;20;
47081;PMS5003;33066;49.296;14.470;2023-04-19T06:34:13;54;51;
47081;PMS5003;33066;49.296;14.470;2023-04-19T06:36:39;37;29;
47081;PMS5003;33066;49.296;14.470;2023-04-19T06:39:05;27;25;
47081;PMS5003;33066;49.296;14.470;2023-04-19T06:41:30;33;30;
47081;PMS5003;33066;49.296;14.470;2023-04-19T06:43:55;31;30;
47081;PMS5003;33066;49.296;14.470;2023-04-19T06:46:20;26;23;
47081;PMS5003;33066;49.296;14.470;2023-04-19T06:48:46;31;25;
47081;PMS5003;33066;49.296;14.470;2023-04-19T06:51:11;31;29;
47081;PMS5003;33066;49.296;14.470;2023-04-19T06:53:37;30;27;
47081;PMS5003;33066;49.296;14.470;2023-04-19T06:56:03;44;37;
47081;PMS5003;33066;49.296;14.470;2023-04-19T06:58:29;49;41;
47081;PMS5003;33066;49.296;14.470;2023-04-19T07:00:54;54;46;
47081;PMS5003;33066;49.296;14.470;2023-04-19T07:03:19;42;36;
47081;PMS5003;33066;49.296;14.470;2023-04-19T07:05:44;48;41;
47081;PMS5003;33066;49.296;14.470;2023-04-19T07:08:10;39;32;
47081;PMS5003;33066;49.296;14.470;2023-04-19T07:10:35;45;39;
47081;PMS5003;33066;49.296;14.470;2023-04-19T07:13:00;35;33;
47081;PMS5003;33066;49.296;14.470;2023-04-19T07:15:26;35;33;
47081;PMS5003;33066;49.296;14.470;2023-04-19T07:17:52;28;27;
47081;PMS5003;33066;49.296;14.470;2023-04-19T07:20:18;43;40;
47081;PMS5003;33066;49.296;14.470;2023-04-19T07:22:43;42;31;
47081;PMS5003;33066;49.296;14.470;2023-04-19T07:25:09;30;26;
47081;PMS5003;33066;49.296;14.470;2023-04-19T07:27:34;39;36;
47081;PMS5003;33066;49.296;14.470;2023-04-19T07:30:01;24;21;
47081;PMS5003;33066;49.296;14.470;2023-04-19T07:32:26;33;24;
47081;PMS5003;33066;49.296;14.470;2023-04-19T07:34:51;28;26;
47081;PMS5003;33066;49.296;14.470;2023-04-19T07:37:18;34;25;
47081;PMS5003;33066;49.296;14.470;2023-04-19T07:39:42;32;26;
47081;PMS5003;33066;49.296;14.470;2023-04-19T07:42:08;63;49;
47081;PMS5003;33066;49.296;14.470;2023-04-19T07:44:33;30;27;
47081;PMS5003;33066;49.296;14.470;2023-04-19T07:46:58;36;31;
47081;PMS5003;33066;49.296;14.470;2023-04-19T07:49:24;30;29;
47081;PMS5003;33066;49.296;14.470;2023-04-19T07:51:49;33;26;
47081;PMS5003;33066;49.296;14.470;2023-04-19T07:54:15;30;29;
47081;PMS5003;33066;49.296;14.470;2023-04-19T07:56:40;30;25;
47081;PMS5003;33066;49.296;14.470;2023-04-19T07:59:05;22;21;
47081;PMS5003;33066;49.296;14.470;2023-04-19T08:01:31;32;24;
47081;PMS5003;33066;49.296;14.470;2023-04-19T08:03:56;32;28;
47081;PMS5003;33066;49.296;14.470;2023-04-19T08:06:22;33;29;
47081;PMS5003;33066;49.296;14.470;2023-04-19T08:08:47;29;26;
47081;PMS5003;33066;49.296;14.470;2023-04-19T08:11:13;38;32;
47081;PMS5003;33066;49.296;14.470;2023-04-19T08:13:38;41;34;
47081;PMS5003;33066;49.296;14.470;2023-04-19T08:16:04;32;28;
47081;PMS5003;33066;49.296;14.470;2023-04-19T08:18:29;38;28;
47081;PMS5003;33066;49.296;14.470;2023-04-19T08:20:55;39;36;
47081;PMS5003;33066;49.296;14.470;2023-04-19T08:23:20;30;26;
47081;PMS5003;33066;49.296;14.470;2023-04-19T08:25:46;38;32;
47081;PMS5003;33066;49.296;14.470;2023-04-19T08:28:11;35;28;
47081;PMS5003;33066;49.296;14.470;2023-04-19T08:30:36;43;37;
47081;PMS5003;33066;49.296;14.470;2023-04-19T08:33:02;31;26;
47081;PMS5003;33066;49.296;14.470;2023-04-19T08:35:27;38;33;
47081;PMS5003;33066;49.296;14.470;2023-04-19T08:37:52;40;30;
47081;PMS5003;33066;49.296;14.470;2023-04-19T08:40:18;28;27;
47081;PMS5003;33066;49.296;14.470;2023-04-19T08:42:43;37;28;
47081;PMS5003;33066;49.296;14.470;2023-04-19T08:45:08;30;25;
47081;PMS5003;33066;49.296;14.470;2023-04-19T08:47:36;29;28;
47081;PMS5003;33066;49.296;14.470;2023-04-19T08:50:00;34;29;
47081;PMS5003;33066;49.296;14.470;2023-04-19T08:52:24;30;27;
47081;PMS5003;33066;49.296;14.470;2023-04-19T08:54:50;29;25;
47081;PMS5003;33066;49.296;14.470;2023-04-19T08:57:15;38;33;
47081;PMS5003;33066;49.296;14.470;2023-04-19T08:59:40;31;28;
47081;PMS5003;33066;49.296;14.470;2023-04-19T09:02:05;26;20;
47081;PMS5003;33066;49.296;14.470;2023-04-19T09:04:31;34;28;
47081;PMS5003;33066;49.296;14.470;2023-04-19T09:06:57;30;24;
47081;PMS5003;33066;49.296;14.470;2023-04-19T09:09:23;27;24;
47081;PMS5003;33066;49.296;14.470;2023-04-19T09:11:48;33;30;
47081;PMS5003;33066;49.296;14.470;2023-04-19T09:14:14;29;28;
47081;PMS5003;33066;49.296;14.470;2023-04-19T09:16:39;21;18;
47081;PMS5003;33066;49.296;14.470;2023-04-19T09:19:05;29;25;
47081;PMS5003;33066;49.296;14.470;2023-04-19T09:21:30;17;17;
47081;PMS5003;33066;49.296;14.470;2023-04-19T09:23:55;23;19;
47081;PMS5003;33066;49.296;14.470;2023-04-19T09:26:21;38;29;
47081;PMS5003;33066;49.296;14.470;2023-04-19T09:31:12;20;17;
47081;PMS5003;33066;49.296;14.470;2023-04-19T09:33:37;26;22;
47081;PMS5003;33066;49.296;14.470;2023-04-19T09:36:03;29;26;
47081;PMS5003;33066;49.296;14.470;2023-04-19T09:38:28;30;26;
47081;PMS5003;33066;49.296;14.470;2023-04-19T09:43:22;25;22;
47081;PMS5003;33066;49.296;14.470;2023-04-19T09:45:44;25;20;
47081;PMS5003;33066;49.296;14.470;2023-04-19T09:48:09;25;21;
47081;PMS5003;33066;49.296;14.470;2023-04-19T09:50:35;28;23;
47081;PMS5003;33066;49.296;14.470;2023-04-19T09:53:00;20;18;
47081;PMS5003;33066;49.296;14.470;2023-04-19T09:55:26;27;25;
47081;PMS5003;33066;49.296;14.470;2023-04-19T09:57:51;21;17;
47081;PMS5003;33066;49.296;14.470;2023-04-19T10:00:17;31;23;
47081;PMS5003;33066;49.296;14.470;2023-04-19T10:02:44;30;25;
47081;PMS5003;33066;49.296;14.470;2023-04-19T10:05:09;32;24;
47081;PMS5003;33066;49.296;14.470;2023-04-19T10:07:34;25;22;
47081;PMS5003;33066;49.296;14.470;2023-04-19T10:09:59;37;33;
47081;PMS5003;33066;49.296;14.470;2023-04-19T10:12:25;26;25;
47081;PMS5003;33066;49.296;14.470;2023-04-19T10:14:50;37;33;
47081;PMS5003;33066;49.296;14.470;2023-04-19T10:17:16;32;30;
47081;PMS5003;33066;49.296;14.470;2023-04-19T10:19:40;32;29;
47081;PMS5003;33066;49.296;14.470;2023-04-19T10:22:06;28;23;
47081;PMS5003;33066;49.296;14.470;2023-04-19T10:24:32;27;27;
47081;PMS5003;33066;49.296;14.470;2023-04-19T10:27:04;17;16;
47081;PMS5003;33066;49.296;14.470;2023-04-19T10:31:50;28;25;
47081;PMS5003;33066;49.296;14.470;2023-04-19T10:34:14;18;18;
47081;PMS5003;33066;49.296;14.470;2023-04-19T10:36:39;30;24;
47081;PMS5003;33066;49.296;14.470;2023-04-19T10:39:06;20;18;
47081;PMS5003;33066;49.296;14.470;2023-04-19T10:48:49;21;16;
47081;PMS5003;33066;49.296;14.470;2023-04-19T10:51:14;23;17;
47081;PMS5003;33066;49.296;14.470;2023-04-19T10:53:42;21;15;
47081;PMS5003;33066;49.296;14.470;2023-04-19T10:56:05;20;19;
47081;PMS5003;33066;49.296;14.470;2023-04-19T10:58:30;20;16;
47081;PMS5003;33066;49.296;14.470;2023-04-19T11:10:38;22;20;
47081;PMS5003;33066;49.296;14.470;2023-04-19T11:13:04;26;20;
47081;PMS5003;33066;49.296;14.470;2023-04-19T11:15:29;26;21;
47081;PMS5003;33066;49.296;14.470;2023-04-19T11:17:54;27;24;
47081;PMS5003;33066;49.296;14.470;2023-04-19T11:20:22;27;23;
47081;PMS5003;33066;49.296;14.470;2023-04-19T11:22:46;22;22;
47081;PMS5003;33066;49.296;14.470;2023-04-19T11:25:14;21;20;
47081;PMS5003;33066;49.296;14.470;2023-04-19T11:27:37;23;19;
47081;PMS5003;33066;49.296;14.470;2023-04-19T11:30:03;24;20;
47081;PMS5003;33066;49.296;14.470;2023-04-19T11:32:28;17;16;
47081;PMS5003;33066;49.296;14.470;2023-04-19T11:34:55;16;12;
47081;PMS5003;33066;49.296;14.470;2023-04-19T11:37:19;16;15;
47081;PMS5003;33066;49.296;14.470;2023-04-19T11:39:45;17;17;
47081;PMS5003;33066;49.296;14.470;2023-04-19T11:44:36;11;11;
47081;PMS5003;33066;49.296;14.470;2023-04-19T11:47:02;22;20;
47081;PMS5003;33066;49.296;14.470;2023-04-19T11:49:28;10;8;
47081;PMS5003;33066;49.296;14.470;2023-04-19T11:51:55;10;10;
47081;PMS5003;33066;49.296;14.470;2023-04-19T11:54:19;11;9;
47081;PMS5003;33066;49.296;14.470;2023-04-19T11:59:11;9;9;
47081;PMS5003;33066;49.296;14.470;2023-04-19T12:01:35;9;9;
47081;PMS5003;33066;49.296;14.470;2023-04-19T12:04:03;8;8;
47081;PMS5003;33066;49.296;14.470;2023-04-19T12:06:26;15;15;
47081;PMS5003;33066;49.296;14.470;2023-04-19T12:08:51;11;10;
47081;PMS5003;33066;49.296;14.470;2023-04-19T12:11:17;9;8;
47081;PMS5003;33066;49.296;14.470;2023-04-19T12:13:42;10;10;
47081;PMS5003;33066;49.296;14.470;2023-04-19T12:16:07;7;7;
47081;PMS5003;33066;49.296;14.470;2023-04-19T12:18:41;6;5;
47081;PMS5003;33066;49.296;14.470;2023-04-19T12:20:57;9;8;
47081;PMS5003;33066;49.296;14.470;2023-04-19T12:23:22;6;6;
47081;PMS5003;33066;49.296;14.470;2023-04-19T12:25:48;14;12;
47081;PMS5003;33066;49.296;14.470;2023-04-19T12:28:13;8;7;
47081;PMS5003;33066;49.296;14.470;2023-04-19T12:30:38;17;14;
47081;PMS5003;33066;49.296;14.470;2023-04-19T12:33:04;16;12;
47081;PMS5003;33066;49.296;14.470;2023-04-19T12:35:29;16;14;
47081;PMS5003;33066;49.296;14.470;2023-04-19T12:37:56;13;10;
47081;PMS5003;33066;49.296;14.470;2023-04-19T12:40:20;18;17;
47081;PMS5003;33066;49.296;14.470;2023-04-19T12:42:45;12;11;
47081;PMS5003;33066;49.296;14.470;2023-04-19T12:45:11;8;7;
47081;PMS5003;33066;49.296;14.470;2023-04-19T12:47:36;7;7;
47081;PMS5003;33066;49.296;14.470;2023-04-19T12:50:01;11;11;
47081;PMS5003;33066;49.296;14.470;2023-04-19T12:52:27;15;14;
47081;PMS5003;33066;49.296;14.470;2023-04-19T12:54:52;11;10;
47081;PMS5003;33066;49.296;14.470;2023-04-19T12:57:18;7;7;
47081;PMS5003;33066;49.296;14.470;2023-04-19T12:59:44;6;4;
47081;PMS5003;33066;49.296;14.470;2023-04-19T13:02:09;6;6;
47081;PMS5003;33066;49.296;14.470;2023-04-19T13:04:34;8;7;
47081;PMS5003;33066;49.296;14.470;2023-04-19T13:06:59;5;5;
47081;PMS5003;33066;49.296;14.470;2023-04-19T13:09:26;6;5;
47081;PMS5003;33066;49.296;14.470;2023-04-19T13:11:50;3;3;
47081;PMS5003;33066;49.296;14.470;2023-04-19T13:14:16;7;6;
47081;PMS5003;33066;49.296;14.470;2023-04-19T13:16:41;9;8;
47081;PMS5003;33066;49.296;14.470;2023-04-19T13:19:06;7;6;
47081;PMS5003;33066;49.296;14.470;2023-04-19T13:21:31;6;6;
47081;PMS5003;33066;49.296;14.470;2023-04-19T13:23:57;11;7;
47081;PMS5003;33066;49.296;14.470;2023-04-19T13:26:22;6;6;
47081;PMS5003;33066;49.296;14.470;2023-04-19T13:28:48;8;7;
47081;PMS5003;33066;49.296;14.470;2023-04-19T13:31:12;7;7;
47081;PMS5003;33066;49.296;14.470;2023-04-19T13:33:37;5;5;
47081;PMS5003;33066;49.296;14.470;2023-04-19T13:36:03;10;9;
47081;PMS5003;33066;49.296;14.470;2023-04-19T13:38:29;11;10;
47081;PMS5003;33066;49.296;14.470;2023-04-19T13:40:53;14;12;
47081;PMS5003;33066;49.296;14.470;2023-04-19T13:43:19;18;18;
47081;PMS5003;33066;49.296;14.470;2023-04-19T13:45:44;12;9;
47081;PMS5003;33066;49.296;14.470;2023-04-19T13:48:11;12;10;
47081;PMS5003;33066;49.296;14.470;2023-04-19T13:50:35;20;10;
47081;PMS5003;33066;49.296;14.470;2023-04-19T13:53:00;12;9;
47081;PMS5003;33066;49.296;14.470;2023-04-19T13:55:26;13;9;
47081;PMS5003;33066;49.296;14.470;2023-04-19T13:57:51;9;9;
47081;PMS5003;33066;49.296;14.470;2023-04-19T14:00:17;10;10;
47081;PMS5003;33066;49.296;14.470;2023-04-19T14:02:42;12;8;
47081;PMS5003;33066;49.296;14.470;2023-04-19T14:05:07;13;11;
47081;PMS5003;33066;49.296;14.470;2023-04-19T14:07:34;12;12;
47081;PMS5003;33066;49.296;14.470;2023-04-19T14:09:57;12;9;
47081;PMS5003;33066;49.296;14.470;2023-04-19T14:12:23;9;9;
47081;PMS5003;33066;49.296;14.470;2023-04-19T14:14:48;9;9;
47081;PMS5003;33066;49.296;14.470;2023-04-19T14:17:14;9;9;
47081;PMS5003;33066;49.296;14.470;2023-04-19T14:19:39;10;10;
47081;PMS5003;33066;49.296;14.470;2023-04-19T14:22:04;8;8;
47081;PMS5003;33066;49.296;14.470;2023-04-19T14:24:31;10;8;
47081;PMS5003;33066;49.296;14.470;2023-04-19T14:26:55;8;8;
47081;PMS5003;33066;49.296;14.470;2023-04-19T14:29:20;10;10;
47081;PMS5003;33066;49.296;14.470;2023-04-19T14:31:46;12;11;
47081;PMS5003;33066;49.296;14.470;2023-04-19T14:34:12;10;10;
47081;PMS5003;33066;49.296;14.470;2023-04-19T14:36:37;31;29;
47081;PMS5003;33066;49.296;14.470;2023-04-19T14:39:03;19;17;
47081;PMS5003;33066;49.296;14.470;2023-04-19T14:41:28;15;13;
47081;PMS5003;33066;49.296;14.470;2023-04-19T14:43:54;12;10;
47081;PMS5003;33066;49.296;14.470;2023-04-19T14:46:18;8;7;
47081;PMS5003;33066;49.296;14.470;2023-04-19T14:48:43;13;12;
47081;PMS5003;33066;49.296;14.470;2023-04-19T14:51:09;9;7;
47081;PMS5003;33066;49.296;14.470;2023-04-19T14:53:34;11;11;
47081;PMS5003;33066;49.296;14.470;2023-04-19T14:56:03;16;16;
47081;PMS5003;33066;49.296;14.470;2023-04-19T14:58:25;15;14;
47081;PMS5003;33066;49.296;14.470;2023-04-19T15:00:50;14;13;
47081;PMS5003;33066;49.296;14.470;2023-04-19T15:03:15;11;11;
47081;PMS5003;33066;49.296;14.470;2023-04-19T15:05:40;15;13;
47081;PMS5003;33066;49.296;14.470;2023-04-19T15:08:06;7;7;
47081;PMS5003;33066;49.296;14.470;2023-04-19T15:10:31;9;8;
47081;PMS5003;33066;49.296;14.470;2023-04-19T15:12:57;12;8;
47081;PMS5003;33066;49.296;14.470;2023-04-19T15:15:22;17;15;
47081;PMS5003;33066;49.296;14.470;2023-04-19T15:17:47;12;11;
47081;PMS5003;33066;49.296;14.470;2023-04-19T15:20:13;7;6;
47081;PMS5003;33066;49.296;14.470;2023-04-19T15:22:38;10;9;
47081;PMS5003;33066;49.296;14.470;2023-04-19T15:25:05;14;13;
47081;PMS5003;33066;49.296;14.470;2023-04-19T15:27:29;17;14;
47081;PMS5003;33066;49.296;14.470;2023-04-19T15:29:54;20;17;
47081;PMS5003;33066;49.296;14.470;2023-04-19T15:32:19;15;12;
47081;PMS5003;33066;49.296;14.470;2023-04-19T15:34:44;17;15;
47081;PMS5003;33066;49.296;14.470;2023-04-19T15:37:10;13;13;
47081;PMS5003;33066;49.296;14.470;2023-04-19T15:39:35;25;22;
47081;PMS5003;33066;49.296;14.470;2023-04-19T15:42:00;14;12;
47081;PMS5003;33066;49.296;14.470;2023-04-19T15:44:25;14;13;
47081;PMS5003;33066;49.296;14.470;2023-04-19T15:46:51;17;11;
47081;PMS5003;33066;49.296;14.470;2023-04-19T15:49:16;10;8;
47081;PMS5003;33066;49.296;14.470;2023-04-19T15:51:42;9;9;
47081;PMS5003;33066;49.296;14.470;2023-04-19T15:54:08;10;10;
47081;PMS5003;33066;49.296;14.470;2023-04-19T15:56:33;10;10;
47081;PMS5003;33066;49.296;14.470;2023-04-19T15:58:58;18;16;
47081;PMS5003;33066;49.296;14.470;2023-04-19T16:01:23;17;15;
47081;PMS5003;33066;49.296;14.470;2023-04-19T16:03:48;22;18;
47081;PMS5003;33066;49.296;14.470;2023-04-19T16:06:14;21;16;
47081;PMS5003;33066;49.296;14.470;2023-04-19T16:08:40;26;23;
47081;PMS5003;33066;49.296;14.470;2023-04-19T16:11:05;10;9;
47081;PMS5003;33066;49.296;14.470;2023-04-19T16:13:31;13;10;
47081;PMS5003;33066;49.296;14.470;2023-04-19T16:15:58;17;14;
47081;PMS5003;33066;49.296;14.470;2023-04-19T16:18:23;16;16;
47081;PMS5003;33066;49.296;14.470;2023-04-19T16:20:47;9;8;
47081;PMS5003;33066;49.296;14.470;2023-04-19T16:23:12;8;7;
47081;PMS5003;33066;49.296;14.470;2023-04-19T16:25:37;12;10;